Time;durP1;ratioP1;P1;durP2;ratioP2;P2;SDS_P1;SDS_P2;PMS_P1;PMS_P2;Temp;Humidity;BMP_temperature;BMP_pressure;BME280_temperature;BME280_humidity;BME280_pressure;Samples;Min_cycle;Max_cycle;Signal;HPM_P1;HPM_P2
2021/04/29 00:02:05;;;;;;;26.23;20.47;;;11.90;1.00;;;;;;5067044;28;20184;-86
2021/04/29 00:04:30;;;;;;;30.60;22.13;;;12.10;1.00;;;;;;5062100;28;20267;-84
2021/04/29 00:06:56;;;;;;;29.10;21.83;;;11.80;1.00;;;;;;5058922;28;20583;-87
2021/04/29 00:09:22;;;;;;;32.67;22.33;;;11.80;1.00;;;;;;5059648;28;20169;-85
2021/04/29 00:11:48;;;;;;;27.97;22.07;;;11.80;1.50;;;;;;5060453;28;20180;-82
2021/04/29 00:14:15;;;;;;;27.30;21.10;;;11.60;8.40;;;;;;5062860;28;20594;-90
2021/04/29 00:16:42;;;;;;;27.97;21.23;;;11.40;15.10;;;;;;5067752;28;20204;-88
2021/04/29 00:19:09;;;;;;;27.87;21.67;;;11.40;19.00;;;;;;5068154;28;20286;-83
2021/04/29 00:21:38;;;;;;;29.27;22.47;;;11.30;23.40;;;;;;5061391;28;20225;-91
2021/04/29 00:24:06;;;;;;;28.40;23.00;;;11.20;27.10;;;;;;5059962;28;20311;-90
2021/04/29 00:26:35;;;;;;;29.93;23.27;;;11.10;33.40;;;;;;5059668;28;20177;-85
2021/04/29 00:29:00;;;;;;;29.50;22.47;;;11.10;39.00;;;;;;5060273;28;20169;-81
2021/04/29 00:31:28;;;;;;;30.03;23.20;;;10.90;42.70;;;;;;5060000;28;20235;-88
2021/04/29 00:33:58;;;;;;;28.33;21.23;;;10.90;45.20;;;;;;5056482;28;20179;-86
2021/04/29 00:36:25;;;;;;;28.83;21.30;;;10.80;47.90;;;;;;5056921;28;20193;-88
2021/04/29 00:38:51;;;;;;;34.70;25.23;;;10.70;57.10;;;;;;5057580;28;20173;-82
2021/04/29 00:41:18;;;;;;;31.03;23.63;;;10.60;65.00;;;;;;5068766;28;20172;-92
2021/04/29 00:43:44;;;;;;;35.67;25.50;;;10.60;66.00;;;;;;5077485;28;20228;-90
2021/04/29 00:46:13;;;;;;;33.40;25.57;;;10.60;66.80;;;;;;5078229;28;20173;-84
2021/04/29 00:48:44;;;;;;;35.40;27.57;;;10.60;68.50;;;;;;5077753;28;20163;-86
2021/04/29 00:51:10;;;;;;;31.70;26.67;;;10.70;65.30;;;;;;5076972;28;20186;-79
2021/04/29 00:53:41;;;;;;;35.00;24.50;;;10.70;66.70;;;;;;5077912;28;20168;-81
2021/04/29 00:56:07;;;;;;;31.70;23.73;;;10.70;61.80;;;;;;5076979;28;20199;-80
2021/04/29 00:58:34;;;;;;;34.57;25.53;;;10.60;65.70;;;;;;5077706;28;20176;-87
2021/04/29 01:01:01;;;;;;;33.03;27.27;;;10.60;68.30;;;;;;5079142;28;20161;-82
2021/04/29 01:03:35;;;;;;;33.47;25.00;;;10.60;69.60;;;;;;5082617;28;20206;-93
2021/04/29 01:06:13;;;;;;;32.00;24.23;;;10.70;69.10;;;;;;5084451;28;20183;-91
2021/04/29 01:08:54;;;;;;;29.40;24.47;;;10.70;66.50;;;;;;5085454;28;20187;-91
2021/04/29 01:11:24;;;;;;;32.23;23.20;;;10.60;67.20;;;;;;5086062;28;20161;-89
2021/04/29 01:13:55;;;;;;;33.47;24.60;;;10.50;64.40;;;;;;5083768;28;20190;-92
2021/04/29 01:16:24;;;;;;;34.63;26.03;;;10.60;64.90;;;;;;5081778;28;20200;-80
2021/04/29 01:18:52;;;;;;;29.97;24.73;;;10.50;65.10;;;;;;5081949;28;20244;-91
2021/04/29 01:21:20;;;;;;;27.83;23.30;;;10.50;64.10;;;;;;5081843;28;20171;-90
2021/04/29 01:24:19;;;;;;;27.73;23.07;;;10.50;62.10;;;;;;5080417;28;20157;-92
2021/04/29 01:27:01;;;;;;;29.30;24.43;;;10.50;60.00;;;;;;5081575;28;20247;-86
2021/04/29 01:29:30;;;;;;;27.83;22.87;;;10.60;60.40;;;;;;5079976;28;20176;-85
2021/04/29 01:31:56;;;;;;;27.97;23.13;;;10.60;56.90;;;;;;5080329;28;20192;-91
2021/04/29 01:34:26;;;;;;;30.43;23.67;;;10.60;55.00;;;;;;5079978;28;20176;-92
2021/04/29 01:36:53;;;;;;;26.67;23.47;;;10.50;53.40;;;;;;5081040;28;20253;-81
2021/04/29 01:39:21;;;;;;;31.63;24.77;;;10.50;53.60;;;;;;5080269;28;20617;-78
2021/04/29 01:41:49;;;;;;;28.83;25.13;;;10.50;56.30;;;;;;5066714;28;20185;-92
2021/04/29 01:44:18;;;;;;;28.07;25.03;;;10.50;55.10;;;;;;5063754;28;20625;-81
2021/04/29 01:46:44;;;;;;;29.93;25.33;;;10.50;53.70;;;;;;5064622;28;20173;-90
2021/04/29 01:49:11;;;;;;;31.40;25.30;;;10.50;56.20;;;;;;5060881;28;20203;-81
2021/04/29 01:51:38;;;;;;;32.17;25.77;;;10.50;54.60;;;;;;5060185;28;20181;-84
2021/04/29 01:54:06;;;;;;;30.57;25.60;;;10.50;53.80;;;;;;5059201;28;20172;-88
2021/04/29 01:56:32;;;;;;;31.37;25.37;;;10.40;51.50;;;;;;5058603;28;20208;-86
2021/04/29 01:58:58;;;;;;;30.77;25.87;;;10.50;54.20;;;;;;5059442;28;20280;-86
2021/04/29 02:01:25;;;;;;;30.83;26.27;;;10.40;53.90;;;;;;5059232;28;20658;-78
2021/04/29 02:03:54;;;;;;;31.53;26.93;;;10.50;48.60;;;;;;5059528;28;20172;-84
2021/04/29 02:06:20;;;;;;;29.43;25.63;;;10.50;47.10;;;;;;5060207;28;20204;-87
2021/04/29 02:08:46;;;;;;;34.90;27.30;;;10.40;49.30;;;;;;5059497;28;20184;-90
2021/04/29 02:11:13;;;;;;;32.80;26.73;;;10.40;52.20;;;;;;5062077;28;20177;-87
2021/04/29 02:13:45;;;;;;;32.53;27.10;;;10.30;54.60;;;;;;5060016;28;20165;-88
2021/04/29 02:16:39;;;;;;;35.50;27.60;;;10.40;52.90;;;;;;5060179;28;20189;-79
2021/04/29 02:19:06;;;;;;;29.80;26.13;;;10.40;50.50;;;;;;5058016;28;20212;-94
2021/04/29 02:21:33;;;;;;;32.57;25.30;;;10.30;50.10;;;;;;5060333;28;20197;-92
2021/04/29 02:23:59;;;;;;;31.60;25.27;;;10.10;54.40;;;;;;5059494;28;20248;-77
2021/04/29 02:26:25;;;;;;;31.83;26.10;;;10.00;59.40;;;;;;5058733;28;20199;-89
2021/04/29 02:28:51;;;;;;;29.37;25.70;;;10.10;60.30;;;;;;5058973;28;20161;-82
2021/04/29 02:31:18;;;;;;;34.23;27.17;;;10.10;59.20;;;;;;5060545;28;20216;-91
2021/04/29 02:33:44;;;;;;;33.83;27.63;;;10.20;59.90;;;;;;5065605;28;20177;-90
2021/04/29 02:36:11;;;;;;;34.57;27.90;;;10.20;55.50;;;;;;5062112;28;20172;-91
2021/04/29 02:38:38;;;;;;;30.90;26.93;;;10.30;54.30;;;;;;5060133;28;20168;-86
2021/04/29 02:41:05;;;;;;;33.23;27.03;;;10.40;52.10;;;;;;5070557;28;20157;-86
2021/04/29 02:43:31;;;;;;;32.20;27.63;;;10.30;51.80;;;;;;5079522;28;20164;-87
2021/04/29 02:45:57;;;;;;;32.17;27.83;;;10.00;60.40;;;;;;5080381;28;20177;-86
2021/04/29 02:48:24;;;;;;;34.20;27.63;;;10.00;66.10;;;;;;5079147;28;20600;-90
2021/04/29 02:50:50;;;;;;;31.77;28.23;;;9.80;67.80;;;;;;5078818;28;20169;-91
2021/04/29 02:53:19;;;;;;;33.13;27.43;;;9.90;69.20;;;;;;5079057;28;20206;-91
2021/04/29 02:55:46;;;;;;;31.83;27.67;;;10.00;67.40;;;;;;5079861;28;20165;-90
2021/04/29 02:58:14;;;;;;;29.87;26.30;;;10.10;62.30;;;;;;5079572;28;20253;-82
2021/04/29 03:00:40;;;;;;;30.97;26.53;;;10.10;60.00;;;;;;5079582;28;20149;-76
2021/04/29 03:03:08;;;;;;;34.37;27.20;;;10.10;58.60;;;;;;5078344;28;20180;-86
2021/04/29 03:05:34;;;;;;;28.97;25.63;;;10.00;59.20;;;;;;5077442;28;20176;-83
2021/04/29 03:08:00;;;;;;;29.70;26.27;;;10.00;63.40;;;;;;5079625;28;20159;-86
2021/04/29 03:10:26;;;;;;;30.10;26.77;;;9.90;67.80;;;;;;5080834;28;20164;-78
2021/04/29 03:12:55;;;;;;;31.17;26.43;;;9.90;66.60;;;;;;5078605;28;20172;-90
2021/04/29 03:15:22;;;;;;;30.13;26.97;;;9.90;66.30;;;;;;5078691;28;20634;-92
2021/04/29 03:17:49;;;;;;;32.77;28.47;;;9.80;68.20;;;;;;5078976;28;20214;-80
2021/04/29 03:20:15;;;;;;;33.00;28.43;;;9.90;68.40;;;;;;5078958;28;20199;-94
2021/04/29 03:22:41;;;;;;;30.90;26.70;;;9.80;69.10;;;;;;5079316;28;20168;-76
2021/04/29 03:25:09;;;;;;;32.27;26.87;;;9.80;70.60;;;;;;5078876;28;20647;-89
2021/04/29 03:27:35;;;;;;;29.57;26.37;;;9.70;71.70;;;;;;5084104;28;20176;-83
2021/04/29 03:30:01;;;;;;;30.03;26.53;;;9.70;70.30;;;;;;5078964;28;20632;-85
2021/04/29 03:32:27;;;;;;;29.03;24.50;;;9.70;72.20;;;;;;5077757;28;20188;-79
2021/04/29 03:34:55;;;;;;;30.13;26.67;;;9.70;71.40;;;;;;5077039;28;20263;-92
2021/04/29 03:37:21;;;;;;;28.83;25.67;;;9.70;71.10;;;;;;5078547;28;20278;-89
2021/04/29 03:39:46;;;;;;;30.30;25.07;;;9.70;72.10;;;;;;5079589;28;20196;-84
2021/04/29 03:42:13;;;;;;;30.43;27.20;;;9.60;73.40;;;;;;5079619;28;20168;-89
2021/04/29 03:44:41;;;;;;;28.77;25.33;;;9.60;73.90;;;;;;5079947;28;20237;-78
2021/04/29 03:47:07;;;;;;;27.40;23.83;;;9.50;75.60;;;;;;5074983;28;20544;-77
2021/04/29 03:49:33;;;;;;;29.47;24.93;;;9.40;79.50;;;;;;5076546;28;20172;-85
2021/04/29 03:51:58;;;;;;;33.07;27.97;;;9.40;81.30;;;;;;5075859;28;20174;-81
2021/04/29 03:54:24;;;;;;;31.17;27.10;;;9.40;83.00;;;;;;5077581;28;20196;-78
2021/04/29 03:56:51;;;;;;;33.77;29.00;;;9.50;85.70;;;;;;5077538;28;20634;-86
2021/04/29 03:59:16;;;;;;;35.40;29.77;;;9.30;90.00;;;;;;5079437;28;20176;-77
2021/04/29 04:01:43;;;;;;;34.33;30.17;;;9.30;91.80;;;;;;5084696;28;20198;-78
2021/04/29 04:04:08;;;;;;;37.43;30.77;;;9.30;91.90;;;;;;5086675;28;20172;-79
2021/04/29 04:06:34;;;;;;;33.90;28.93;;;9.40;91.50;;;;;;5078113;28;20178;-92
2021/04/29 04:09:00;;;;;;;32.90;27.70;;;9.40;91.60;;;;;;5077611;28;20172;-90
2021/04/29 04:11:32;;;;;;;34.87;27.00;;;9.30;91.10;;;;;;5078607;28;20168;-92
2021/04/29 04:13:59;;;;;;;33.53;27.73;;;9.20;90.30;;;;;;5078711;28;20196;-91
2021/04/29 04:16:29;;;;;;;32.90;26.37;;;9.20;90.80;;;;;;5079735;28;20195;-94
2021/04/29 04:18:55;;;;;;;34.97;28.07;;;9.30;91.20;;;;;;5079203;28;20275;-91
2021/04/29 04:21:21;;;;;;;32.50;28.67;;;9.30;91.40;;;;;;5079278;28;20173;-91
2021/04/29 04:23:46;;;;;;;33.50;29.20;;;9.40;90.80;;;;;;5077948;28;20176;-78
2021/04/29 04:26:12;;;;;;;33.90;29.30;;;9.50;88.60;;;;;;5077044;28;20251;-83
2021/04/29 04:28:38;;;;;;;36.33;32.10;;;9.60;85.40;;;;;;5077236;28;20591;-91
2021/04/29 04:31:03;;;;;;;38.33;31.00;;;9.50;83.60;;;;;;5077453;28;20176;-90
2021/04/29 04:33:29;;;;;;;37.10;32.03;;;9.60;82.40;;;;;;5079055;28;20177;-76
2021/04/29 04:35:56;;;;;;;39.33;31.93;;;9.50;81.40;;;;;;5077828;28;20180;-85
2021/04/29 04:38:21;;;;;;;36.37;32.43;;;9.40;82.80;;;;;;5079753;28;20176;-80
2021/04/29 04:40:47;;;;;;;40.10;33.87;;;9.50;83.90;;;;;;5071977;28;20168;-90
2021/04/29 04:43:12;;;;;;;41.40;34.20;;;9.60;83.30;;;;;;5062095;28;20169;-89
2021/04/29 04:45:43;;;;;;;40.77;35.67;;;9.70;81.50;;;;;;5060980;28;20196;-85
2021/04/29 04:48:15;;;;;;;38.90;33.70;;;9.60;80.30;;;;;;5060687;28;20241;-79
2021/04/29 04:50:40;;;;;;;41.73;34.13;;;9.60;78.80;;;;;;5060029;28;20165;-89
2021/04/29 04:53:06;;;;;;;35.67;29.80;;;9.50;81.90;;;;;;5058008;28;20237;-77
2021/04/29 04:55:35;;;;;;;34.27;29.57;;;9.40;81.00;;;;;;5058158;28;20200;-88
2021/04/29 04:58:00;;;;;;;32.10;28.03;;;9.40;82.10;;;;;;5058127;28;20209;-81
2021/04/29 05:00:26;;;;;;;32.03;26.83;;;9.40;81.00;;;;;;5058119;28;20184;-81
2021/04/29 05:02:52;;;;;;;29.63;22.90;;;9.40;84.10;;;;;;5059939;28;20181;-93
2021/04/29 05:05:21;;;;;;;26.50;22.10;;;9.40;74.40;;;;;;5059796;28;20176;-93
2021/04/29 05:07:48;;;;;;;26.60;23.80;;;9.40;73.30;;;;;;5058303;28;20180;-92
2021/04/29 05:10:20;;;;;;;26.83;23.93;;;9.40;73.30;;;;;;5061754;28;20265;-88
2021/04/29 05:12:46;;;;;;;30.30;24.30;;;9.50;71.80;;;;;;5060651;28;20165;-78
2021/04/29 05:15:14;;;;;;;29.57;24.67;;;9.40;70.00;;;;;;5058972;28;20308;-79
2021/04/29 05:17:42;;;;;;;34.27;29.30;;;9.50;70.90;;;;;;5061794;28;20204;-86
2021/04/29 05:20:10;;;;;;;33.53;29.73;;;9.60;71.70;;;;;;5060617;28;20201;-92
2021/04/29 05:22:35;;;;;;;36.07;29.57;;;9.50;74.10;;;;;;5059899;28;20236;-89
2021/04/29 05:25:01;;;;;;;34.87;30.80;;;9.60;75.40;;;;;;5057721;28;20188;-83
2021/04/29 05:27:27;;;;;;;38.87;32.53;;;9.60;77.60;;;;;;5058647;28;20188;-82
2021/04/29 05:29:56;;;;;;;41.40;33.43;;;9.50;77.50;;;;;;5057501;28;20202;-83
2021/04/29 05:32:21;;;;;;;38.43;34.33;;;9.50;82.60;;;;;;5056478;28;20203;-82
2021/04/29 05:34:47;;;;;;;42.00;36.77;;;9.40;82.70;;;;;;5057512;28;20177;-84
2021/04/29 05:37:13;;;;;;;43.73;37.90;;;9.40;84.80;;;;;;5058509;28;20204;-84
2021/04/29 05:39:39;;;;;;;46.33;37.67;;;9.50;84.40;;;;;;5062701;28;20165;-81
2021/04/29 05:42:05;;;;;;;40.00;35.50;;;9.40;84.60;;;;;;5079922;28;20204;-92
2021/04/29 05:44:30;;;;;;;39.50;34.97;;;9.50;85.90;;;;;;5083843;28;20169;-77
2021/04/29 05:46:56;;;;;;;36.60;32.30;;;9.40;85.20;;;;;;5085659;28;20169;-85
2021/04/29 05:49:22;;;;;;;36.93;32.77;;;9.40;83.90;;;;;;5072969;28;20195;-81
2021/04/29 05:51:47;;;;;;;35.97;31.47;;;9.40;84.80;;;;;;5067502;28;20276;-80
2021/04/29 05:54:14;;;;;;;36.80;30.57;;;9.50;84.00;;;;;;5065639;28;20167;-78
2021/04/29 05:56:40;;;;;;;35.97;31.13;;;9.30;83.20;;;;;;5064019;28;20193;-85
2021/04/29 05:59:08;;;;;;;32.57;29.07;;;9.30;83.20;;;;;;5066690;28;20240;-90
2021/04/29 06:01:33;;;;;;;37.87;30.03;;;9.30;84.40;;;;;;5064416;28;20195;-89
2021/04/29 06:03:59;;;;;;;34.20;30.13;;;9.40;83.80;;;;;;5059218;28;20180;-77
2021/04/29 06:06:25;;;;;;;34.07;30.30;;;9.30;83.20;;;;;;5062225;28;20180;-88
2021/04/29 06:08:53;;;;;;;31.90;27.47;;;9.20;83.30;;;;;;5071004;28;20187;-78
2021/04/29 06:11:18;;;;;;;31.13;27.50;;;9.20;85.00;;;;;;5062545;28;20727;-82
2021/04/29 06:13:45;;;;;;;34.17;27.83;;;9.30;83.10;;;;;;5058677;28;20177;-82
2021/04/29 06:16:11;;;;;;;29.23;26.03;;;9.40;80.80;;;;;;5057797;28;20555;-89
2021/04/29 06:18:38;;;;;;;30.77;25.80;;;9.30;81.40;;;;;;5058412;28;20197;-84
2021/04/29 06:21:04;;;;;;;30.53;27.03;;;9.40;82.60;;;;;;5060132;28;20207;-88
2021/04/29 06:23:31;;;;;;;29.90;26.63;;;9.50;81.10;;;;;;5073948;28;20175;-86
2021/04/29 06:25:57;;;;;;;30.80;25.17;;;9.50;80.40;;;;;;5094180;28;20719;-75
2021/04/29 06:28:23;;;;;;;28.17;25.10;;;9.50;79.90;;;;;;5064604;28;20234;-77
2021/04/29 06:30:48;;;;;;;32.27;24.37;;;9.50;79.70;;;;;;5082140;28;20171;-75
2021/04/29 06:33:14;;;;;;;27.27;23.80;;;9.40;82.20;;;;;;5100602;28;20272;-93
2021/04/29 06:35:40;;;;;;;29.73;24.90;;;9.30;83.90;;;;;;5101670;28;20159;-86
2021/04/29 06:38:05;;;;;;;29.40;25.53;;;9.30;84.20;;;;;;5101949;28;20222;-86
2021/04/29 06:40:31;;;;;;;31.83;24.43;;;9.30;81.00;;;;;;5091549;28;20179;-80
2021/04/29 06:42:57;;;;;;;33.33;24.97;;;9.40;77.90;;;;;;5088238;28;20175;-76
2021/04/29 06:45:22;;;;;;;29.23;24.47;;;9.50;74.40;;;;;;5086018;28;20595;-77
2021/04/29 06:47:49;;;;;;;26.47;21.67;;;9.50;71.10;;;;;;5087377;28;20210;-77
2021/04/29 06:50:15;;;;;;;22.03;19.43;;;9.40;61.80;;;;;;5086238;28;20164;-79
2021/04/29 06:52:41;;;;;;;23.37;17.73;;;9.40;62.70;;;;;;5084827;28;20180;-84
2021/04/29 06:55:12;;;;;;;21.10;18.50;;;9.20;64.60;;;;;;5080919;28;20258;-78
2021/04/29 06:57:38;;;;;;;21.73;15.97;;;9.00;71.10;;;;;;5085317;28;20200;-92
2021/04/29 07:00:06;;;;;;;20.27;16.23;;;9.10;67.80;;;;;;5087766;28;20161;-93
2021/04/29 07:02:32;;;;;;;21.57;14.77;;;9.10;67.30;;;;;;5093336;28;20180;-79
2021/04/29 07:04:57;;;;;;;17.40;13.90;;;9.20;65.90;;;;;;5089698;28;20175;-82
2021/04/29 07:07:25;;;;;;;13.97;12.30;;;9.20;60.70;;;;;;5077190;28;20176;-93
2021/04/29 07:09:51;;;;;;;13.13;10.07;;;9.10;57.40;;;;;;5085923;28;20176;-88
2021/04/29 07:12:16;;;;;;;14.03;10.53;;;9.10;54.60;;;;;;5080574;28;20185;-78
2021/04/29 07:14:42;;;;;;;14.73;10.57;;;9.00;56.50;;;;;;5080035;28;20175;-84
2021/04/29 07:17:21;;;;;;;12.67;10.63;;;9.00;59.20;;;;;;5084970;28;20204;-80
2021/04/29 07:19:47;;;;;;;11.90;10.07;;;9.20;56.60;;;;;;5106458;28;20198;-96
2021/04/29 07:22:23;;;;;;;12.57;9.40;;;9.10;50.90;;;;;;5086262;28;20177;-76
2021/04/29 07:24:49;;;;;;;12.23;10.40;;;9.10;52.30;;;;;;5077880;28;20176;-86
2021/04/29 07:27:16;;;;;;;14.63;12.80;;;9.00;54.60;;;;;;5072786;28;20286;-95
2021/04/29 07:29:42;;;;;;;15.87;12.80;;;9.00;56.20;;;;;;5076864;28;20179;-80
2021/04/29 07:32:08;;;;;;;16.70;13.97;;;8.90;57.60;;;;;;5081588;28;20184;-75
2021/04/29 07:34:34;;;;;;;17.17;15.37;;;8.80;63.10;;;;;;5080449;28;20173;-75
2021/04/29 07:37:05;;;;;;;19.40;17.07;;;8.90;66.60;;;;;;5084654;28;20290;-79
2021/04/29 07:39:33;;;;;;;21.00;18.37;;;8.80;66.00;;;;;;5090002;28;20191;-77
2021/04/29 07:41:59;;;;;;;22.53;18.57;;;8.80;72.00;;;;;;5084096;28;20186;-76
2021/04/29 07:44:25;;;;;;;22.50;19.23;;;8.60;71.80;;;;;;5090979;28;20184;-81
2021/04/29 07:47:00;;;;;;;22.43;19.87;;;8.70;74.40;;;;;;5091400;28;20198;-76
2021/04/29 07:49:26;;;;;;;24.57;19.57;;;8.80;73.50;;;;;;5089312;28;20186;-83
2021/04/29 07:51:52;;;;;;;20.53;17.53;;;8.70;73.40;;;;;;5091741;28;20224;-78
2021/04/29 07:54:19;;;;;;;20.17;16.67;;;8.80;74.10;;;;;;5090951;28;20148;-81
2021/04/29 07:56:45;;;;;;;19.77;16.23;;;8.70;73.50;;;;;;5090359;28;20196;-80
2021/04/29 07:59:11;;;;;;;18.03;14.23;;;8.90;73.10;;;;;;5088515;28;20160;-79
2021/04/29 08:01:39;;;;;;;20.47;12.70;;;8.70;68.20;;;;;;5087670;28;20235;-79
2021/04/29 08:04:10;;;;;;;17.67;12.57;;;8.70;67.30;;;;;;5090681;28;20247;-94
2021/04/29 08:06:48;;;;;;;15.63;11.00;;;8.70;64.40;;;;;;5094613;28;20148;-88
2021/04/29 08:09:34;;;;;;;12.27;10.77;;;8.50;70.60;;;;;;5094178;28;20246;-96
2021/04/29 08:15:22;;;;;;;15.17;8.90;;;8.30;63.80;;;;;;5092851;28;20164;-91
2021/04/29 08:17:51;;;;;;;9.27;7.00;;;8.30;59.80;;;;;;5086417;28;20196;-91
2021/04/29 08:20:24;;;;;;;10.37;7.30;;;8.30;54.40;;;;;;5086433;28;20187;-77
2021/04/29 08:22:53;;;;;;;10.43;6.57;;;8.20;56.70;;;;;;5086492;28;20198;-94
2021/04/29 08:25:21;;;;;;;9.10;6.10;;;8.30;53.90;;;;;;5089437;28;20243;-95
2021/04/29 08:27:47;;;;;;;10.30;6.43;;;8.10;54.10;;;;;;5084656;28;20629;-80
2021/04/29 08:30:15;;;;;;;8.13;6.33;;;8.20;55.00;;;;;;5082493;28;20202;-93
2021/04/29 08:32:41;;;;;;;7.73;5.20;;;8.10;56.30;;;;;;5079076;28;20188;-89
2021/04/29 08:35:10;;;;;;;7.63;5.90;;;8.00;55.70;;;;;;5085477;28;20195;-90
2021/04/29 08:37:36;;;;;;;10.70;5.33;;;7.90;61.70;;;;;;5078466;28;20196;-86
2021/04/29 08:40:03;;;;;;;7.87;5.37;;;7.90;66.40;;;;;;5077325;28;20310;-81
2021/04/29 08:42:30;;;;;;;8.23;5.80;;;7.90;70.50;;;;;;5079390;28;20212;-91
2021/04/29 08:45:09;;;;;;;7.60;6.07;;;8.00;69.20;;;;;;5082458;28;20462;-95
2021/04/29 08:47:37;;;;;;;7.20;5.40;;;7.90;68.50;;;;;;5080945;28;20199;-94
2021/04/29 08:50:05;;;;;;;10.20;6.13;;;7.80;72.60;;;;;;5082306;28;20160;-93
2021/04/29 08:52:31;;;;;;;6.93;5.57;;;7.70;78.20;;;;;;5080296;28;20172;-80
2021/04/29 08:54:58;;;;;;;7.13;5.57;;;7.60;77.80;;;;;;5080887;28;20158;-89
2021/04/29 08:57:25;;;;;;;6.17;4.97;;;7.80;81.40;;;;;;5079272;28;20203;-84
2021/04/29 08:59:52;;;;;;;8.63;5.97;;;7.80;79.10;;;;;;5077275;28;20172;-89
2021/04/29 09:02:34;;;;;;;7.80;6.17;;;7.80;79.50;;;;;;5077493;28;20543;-78
2021/04/29 09:05:34;;;;;;;8.67;5.90;;;7.90;81.80;;;;;;5079364;28;20164;-78
2021/04/29 09:08:03;;;;;;;7.27;5.43;;;8.10;77.80;;;;;;5073160;28;20195;-75
2021/04/29 09:10:35;;;;;;;8.47;5.43;;;8.00;71.90;;;;;;5059521;28;20201;-92
2021/04/29 09:13:12;;;;;;;6.57;5.00;;;7.90;69.10;;;;;;5055710;28;20170;-79
2021/04/29 09:15:39;;;;;;;7.57;5.30;;;7.90;69.20;;;;;;5056673;28;20176;-94
2021/04/29 09:18:11;;;;;;;6.20;5.23;;;8.00;70.30;;;;;;5056792;28;20262;-79
2021/04/29 09:20:50;;;;;;;6.67;5.90;;;8.10;75.90;;;;;;5055515;28;20224;-80
2021/04/29 09:23:18;;;;;;;8.17;5.80;;;8.10;77.00;;;;;;5059651;28;20177;-81
2021/04/29 09:26:07;;;;;;;7.67;6.00;;;8.30;78.30;;;;;;5058454;28;20645;-83
2021/04/29 09:28:44;;;;;;;6.93;5.83;;;8.30;73.20;;;;;;5060195;28;20188;-83
2021/04/29 09:31:16;;;;;;;7.57;5.70;;;8.30;72.70;;;;;;5074043;28;20638;-81
2021/04/29 09:33:45;;;;;;;9.30;6.67;;;8.20;73.70;;;;;;5077284;28;20192;-84
2021/04/29 09:36:31;;;;;;;10.40;6.90;;;8.10;81.00;;;;;;5076592;28;20200;-89
2021/04/29 09:39:08;;;;;;;8.10;6.97;;;8.20;84.30;;;;;;5076082;28;20191;-89
2021/04/29 09:41:38;;;;;;;10.90;7.60;;;8.20;85.60;;;;;;5076518;28;20152;-77
2021/04/29 09:44:10;;;;;;;11.40;7.00;;;8.10;80.00;;;;;;5077002;28;20267;-86
2021/04/29 09:46:44;;;;;;;11.60;7.53;;;7.90;80.80;;;;;;5079718;28;20606;-83
2021/04/29 09:49:39;;;;;;;10.00;8.03;;;7.90;87.40;;;;;;5078339;28;20194;-81
2021/04/29 09:52:18;;;;;;;9.37;7.90;;;7.90;83.60;;;;;;5077721;28;20207;-85
2021/04/29 09:54:45;;;;;;;11.53;9.30;;;8.00;82.40;;;;;;5078112;28;20164;-78
2021/04/29 09:57:15;;;;;;;10.47;8.17;;;7.90;84.30;;;;;;5079496;28;20532;-79
2021/04/29 09:59:48;;;;;;;11.40;8.70;;;7.80;82.80;;;;;;5078756;28;20272;-78
2021/04/29 10:02:15;;;;;;;10.30;8.30;;;8.10;81.10;;;;;;5078621;28;20180;-77
2021/04/29 10:04:47;;;;;;;12.57;8.40;;;8.00;81.50;;;;;;5078064;28;20164;-84
2021/04/29 10:07:15;;;;;;;11.77;8.93;;;8.10;83.00;;;;;;5076871;28;20159;-78
2021/04/29 10:09:42;;;;;;;11.23;9.27;;;8.00;81.80;;;;;;5079246;28;20195;-86
2021/04/29 10:12:16;;;;;;;13.83;9.87;;;8.00;84.80;;;;;;5080248;28;20169;-80
2021/04/29 10:14:50;;;;;;;10.87;8.67;;;8.10;82.20;;;;;;5081549;28;20173;-91
2021/04/29 10:17:37;;;;;;;9.73;8.73;;;8.00;78.10;;;;;;5081445;28;20204;-95
2021/04/29 10:20:07;;;;;;;9.77;8.37;;;7.90;78.00;;;;;;5067749;28;20241;-89
2021/04/29 10:22:33;;;;;;;11.93;8.57;;;8.00;82.50;;;;;;5080346;28;20169;-84
2021/04/29 10:24:58;;;;;;;12.13;7.97;;;8.00;84.30;;;;;;5078708;28;20218;-92
2021/04/29 10:27:26;;;;;;;11.03;8.10;;;8.10;80.20;;;;;;5067377;28;20177;-79
2021/04/29 10:30:09;;;;;;;8.97;8.03;;;8.10;77.80;;;;;;5065691;28;20187;-86
2021/04/29 10:32:42;;;;;;;12.47;8.87;;;8.00;76.70;;;;;;5081967;28;20191;-90
2021/04/29 10:35:20;;;;;;;11.57;8.70;;;8.00;79.20;;;;;;5080044;28;20544;-83
2021/04/29 10:38:00;;;;;;;10.80;7.47;;;8.10;79.70;;;;;;5081735;28;20227;-95
2021/04/29 10:40:37;;;;;;;10.47;7.70;;;8.10;79.30;;;;;;5079406;28;20194;-92
2021/04/29 10:43:04;;;;;;;12.10;8.07;;;8.20;78.20;;;;;;5079927;28;20160;-86
2021/04/29 10:45:30;;;;;;;10.73;8.13;;;8.20;71.10;;;;;;5077569;28;20686;-91
2021/04/29 10:48:12;;;;;;;14.97;8.93;;;8.20;73.00;;;;;;5076560;28;20160;-83
2021/04/29 10:50:46;;;;;;;11.60;8.90;;;8.30;72.20;;;;;;5077730;28;20215;-79
2021/04/29 10:53:14;;;;;;;10.90;8.53;;;8.30;72.20;;;;;;5079392;28;20175;-76
2021/04/29 10:55:44;;;;;;;11.37;8.70;;;8.40;70.70;;;;;;5062654;28;20181;-78
2021/04/29 10:58:24;;;;;;;10.67;8.80;;;8.50;65.60;;;;;;5082039;28;20200;-83
2021/04/29 11:01:06;;;;;;;11.97;7.97;;;8.70;58.30;;;;;;5085786;28;20194;-90
2021/04/29 11:03:38;;;;;;;11.93;7.50;;;8.70;54.80;;;;;;5076924;28;20287;-91
2021/04/29 11:06:19;;;;;;;11.57;9.10;;;8.50;47.70;;;;;;5080860;28;20186;-91
2021/04/29 11:08:51;;;;;;;12.47;8.23;;;8.40;55.20;;;;;;5076571;28;20501;-90
2021/04/29 11:11:26;;;;;;;10.90;8.93;;;8.60;58.10;;;;;;5077349;28;20152;-89
2021/04/29 11:14:12;;;;;;;13.33;8.80;;;8.60;51.50;;;;;;5075064;28;20704;-76
2021/04/29 11:16:55;;;;;;;10.93;8.80;;;8.60;50.40;;;;;;5075365;28;20545;-91
2021/04/29 11:19:45;;;;;;;10.97;9.40;;;8.70;49.10;;;;;;5083232;28;20223;-92
2021/04/29 11:22:24;;;;;;;10.80;9.03;;;8.80;45.90;;;;;;5084583;28;20203;-87
2021/04/29 11:24:50;;;;;;;10.50;8.97;;;8.80;40.80;;;;;;5087400;28;20191;-87
2021/04/29 11:27:28;;;;;;;12.50;9.27;;;8.80;36.60;;;;;;5084304;28;20214;-91
2021/04/29 11:30:02;;;;;;;12.10;9.33;;;8.80;40.10;;;;;;5081238;28;20179;-83
2021/04/29 11:32:32;;;;;;;11.37;9.60;;;8.80;41.30;;;;;;5085604;28;20192;-91
2021/04/29 11:35:01;;;;;;;12.00;8.80;;;8.70;35.60;;;;;;5080970;28;20192;-81
2021/04/29 11:37:38;;;;;;;12.43;9.33;;;8.60;35.60;;;;;;5082291;28;20294;-84
2021/04/29 11:40:04;;;;;;;12.03;9.50;;;8.60;37.80;;;;;;5083322;28;20213;-81
2021/04/29 11:42:32;;;;;;;12.37;10.17;;;8.60;40.30;;;;;;5084459;28;20267;-89
2021/04/29 11:45:11;;;;;;;10.93;9.60;;;8.70;39.80;;;;;;5080956;28;20165;-90
2021/04/29 11:47:52;;;;;;;13.03;9.43;;;8.80;40.00;;;;;;5078451;28;20176;-93
2021/04/29 11:50:25;;;;;;;13.13;8.17;;;8.70;41.50;;;;;;5081438;28;20168;-91
2021/04/29 11:53:01;;;;;;;14.50;8.50;;;8.70;44.90;;;;;;5076353;28;20247;-84
2021/04/29 11:55:27;;;;;;;13.87;7.63;;;8.80;39.10;;;;;;5078388;28;20203;-86
2021/04/29 11:57:52;;;;;;;10.60;8.10;;;8.80;38.10;;;;;;5077780;28;20211;-85
2021/04/29 12:00:28;;;;;;;11.87;8.47;;;8.80;38.30;;;;;;5080092;28;20173;-88
2021/04/29 12:03:00;;;;;;;13.33;8.47;;;8.90;34.10;;;;;;5074785;28;20183;-85
2021/04/29 12:05:32;;;;;;;19.27;8.67;;;9.00;32.60;;;;;;5074105;28;20207;-86
2021/04/29 12:07:58;;;;;;;12.90;8.97;;;9.00;32.40;;;;;;5076038;28;20287;-86
2021/04/29 12:10:24;;;;;;;11.87;8.87;;;9.00;32.30;;;;;;5075721;28;20253;-93
2021/04/29 12:12:50;;;;;;;10.30;8.33;;;9.00;20.60;;;;;;5087843;28;20217;-85
2021/04/29 12:15:16;;;;;;;14.17;9.00;;;8.90;1.00;;;;;;5098217;28;20219;-81
2021/04/29 12:17:42;;;;;;;12.57;9.20;;;8.90;10.70;;;;;;5096000;28;20242;-92
2021/04/29 12:20:08;;;;;;;12.67;9.80;;;8.90;8.40;;;;;;5098339;28;20213;-91
2021/04/29 12:22:39;;;;;;;13.30;9.97;;;8.90;10.30;;;;;;5100502;28;20164;-92
2021/04/29 12:25:05;;;;;;;13.77;9.67;;;9.10;3.50;;;;;;5100861;28;20190;-92
2021/04/29 12:27:38;;;;;;;10.47;9.23;;;9.10;5.30;;;;;;5101682;28;20195;-95
2021/04/29 12:30:06;;;;;;;13.23;9.90;;;9.20;1.00;;;;;;5094860;28;20172;-90
2021/04/29 12:32:36;;;;;;;13.10;8.97;;;9.20;1.00;;;;;;5074405;28;20589;-85
2021/04/29 12:35:04;;;;;;;12.87;10.20;;;9.30;1.00;;;;;;5075323;28;20177;-87
2021/04/29 12:37:33;;;;;;;12.33;9.13;;;9.30;1.00;;;;;;5075078;28;20784;-87
2021/04/29 12:39:59;;;;;;;13.40;9.20;;;9.20;1.00;;;;;;5074475;28;20172;-86
2021/04/29 12:42:25;;;;;;;12.00;9.20;;;9.20;1.00;;;;;;5073986;28;20219;-83
2021/04/29 12:45:03;;;;;;;12.87;8.70;;;9.20;1.00;;;;;;5073934;28;20580;-90
2021/04/29 12:47:33;;;;;;;15.77;8.77;;;9.10;1.00;;;;;;5074237;28;20331;-89
2021/04/29 12:50:05;;;;;;;12.53;10.30;;;9.30;1.00;;;;;;5074258;28;20224;-90
2021/04/29 12:52:32;;;;;;;12.87;10.20;;;9.20;1.00;;;;;;5074627;28;20617;-92
2021/04/29 12:54:58;;;;;;;17.13;10.27;;;9.10;1.00;;;;;;5073326;28;20182;-93